sensor_id;sensor_type;location;lat;lon;timestamp;pressure;altitude;pressure_sealevel;temperature;humidity
11038;BME280;5572;49.540;11.932;2023-02-23T00:01:50;95956.41;;;5.84;100.00
11038;BME280;5572;49.540;11.932;2023-02-23T00:04:18;95960.44;;;5.87;100.00
11038;BME280;5572;49.540;11.932;2023-02-23T00:06:44;95945.19;;;5.77;100.00
11038;BME280;5572;49.540;11.932;2023-02-23T00:09:11;95955.16;;;5.57;100.00
11038;BME280;5572;49.540;11.932;2023-02-23T00:11:47;95956.22;;;5.56;100.00
11038;BME280;5572;49.540;11.932;2023-02-23T00:14:14;95963.72;;;5.64;100.00
11038;BME280;5572;49.540;11.932;2023-02-23T00:16:41;95968.50;;;5.72;100.00
11038;BME280;5572;49.540;11.932;2023-02-23T00:19:10;95966.88;;;5.71;100.00
11038;BME280;5572;49.540;11.932;2023-02-23T00:21:40;95961.56;;;5.66;100.00
11038;BME280;5572;49.540;11.932;2023-02-23T00:24:09;95968.53;;;5.62;100.00
11038;BME280;5572;49.540;11.932;2023-02-23T00:26:41;95979.53;;;5.60;100.00
11038;BME280;5572;49.540;11.932;2023-02-23T00:29:17;95980.59;;;5.59;100.00
11038;BME280;5572;49.540;11.932;2023-02-23T00:31:45;95991.34;;;5.44;100.00
11038;BME280;5572;49.540;11.932;2023-02-23T00:34:14;95991.38;;;5.39;100.00
11038;BME280;5572;49.540;11.932;2023-02-23T00:36:48;95993.25;;;5.34;100.00
11038;BME280;5572;49.540;11.932;2023-02-23T00:39:16;95998.34;;;5.30;100.00
11038;BME280;5572;49.540;11.932;2023-02-23T00:41:46;96007.19;;;5.36;100.00
11038;BME280;5572;49.540;11.932;2023-02-23T00:44:13;96002.09;;;4.95;100.00
11038;BME280;5572;49.540;11.932;2023-02-23T00:46:41;95991.94;;;5.07;100.00
11038;BME280;5572;49.540;11.932;2023-02-23T00:49:10;95997.84;;;5.04;100.00
11038;BME280;5572;49.540;11.932;2023-02-23T00:51:37;95992.47;;;5.18;100.00
11038;BME280;5572;49.540;11.932;2023-02-23T00:54:06;95980.94;;;5.28;100.00
11038;BME280;5572;49.540;11.932;2023-02-23T00:56:33;95984.44;;;5.23;100.00
11038;BME280;5572;49.540;11.932;2023-02-23T00:59:02;95977.19;;;5.14;100.00
11038;BME280;5572;49.540;11.932;2023-02-23T01:01:28;95967.03;;;5.11;100.00
11038;BME280;5572;49.540;11.932;2023-02-23T01:03:55;95978.53;;;4.97;100.00
11038;BME280;5572;49.540;11.932;2023-02-23T01:06:22;95978.56;;;4.92;100.00
11038;BME280;5572;49.540;11.932;2023-02-23T01:08:50;95990.59;;;4.84;100.00
11038;BME280;5572;49.540;11.932;2023-02-23T01:11:24;95999.69;;;4.73;100.00
11038;BME280;5572;49.540;11.932;2023-02-23T01:13:54;95995.16;;;4.74;100.00
11038;BME280;5572;49.540;11.932;2023-02-23T01:16:23;95994.59;;;4.87;100.00
11038;BME280;5572;49.540;11.932;2023-02-23T01:18:53;96009.34;;;4.99;100.00
11038;BME280;5572;49.540;11.932;2023-02-23T01:21:22;96002.41;;;4.98;100.00
11038;BME280;5572;49.540;11.932;2023-02-23T01:23:49;95993.25;;;4.89;100.00
11038;BME280;5572;49.540;11.932;2023-02-23T01:26:16;95980.44;;;4.76;100.00
11038;BME280;5572;49.540;11.932;2023-02-23T01:28:47;95998.38;;;4.81;100.00
11038;BME280;5572;49.540;11.932;2023-02-23T01:31:14;95998.91;;;4.83;100.00
11038;BME280;5572;49.540;11.932;2023-02-23T01:33:40;95997.84;;;4.74;100.00
11038;BME280;5572;49.540;11.932;2023-02-23T01:36:07;96007.44;;;4.75;100.00
11038;BME280;5572;49.540;11.932;2023-02-23T01:38:34;96005.88;;;4.99;100.00
11038;BME280;5572;49.540;11.932;2023-02-23T01:41:00;96009.09;;;5.01;100.00
11038;BME280;5572;49.540;11.932;2023-02-23T01:43:28;96017.13;;;4.91;100.00
11038;BME280;5572;49.540;11.932;2023-02-23T01:45:56;96013.88;;;4.64;100.00
11038;BME280;5572;49.540;11.932;2023-02-23T01:48:26;96025.09;;;4.56;100.00
11038;BME280;5572;49.540;11.932;2023-02-23T01:50:58;96025.13;;;4.71;100.00
11038;BME280;5572;49.540;11.932;2023-02-23T01:53:29;96027.28;;;4.74;100.00
11038;BME280;5572;49.540;11.932;2023-02-23T01:56:01;96024.28;;;4.60;100.00
11038;BME280;5572;49.540;11.932;2023-02-23T01:58:29;96033.69;;;4.68;100.00
11038;BME280;5572;49.540;11.932;2023-02-23T02:00:58;96029.41;;;4.72;100.00
11038;BME280;5572;49.540;11.932;2023-02-23T02:03:30;96054.56;;;4.71;100.00
11038;BME280;5572;49.540;11.932;2023-02-23T02:05:59;96046.28;;;4.67;100.00
11038;BME280;5572;49.540;11.932;2023-02-23T02:08:27;96054.28;;;4.72;100.00
11038;BME280;5572;49.540;11.932;2023-02-23T02:10:55;96060.97;;;4.65;100.00
11038;BME280;5572;49.540;11.932;2023-02-23T02:13:24;96070.63;;;4.71;100.00
11038;BME280;5572;49.540;11.932;2023-02-23T02:16:27;96052.38;;;4.58;100.00
11038;BME280;5572;49.540;11.932;2023-02-23T02:19:28;96067.38;;;4.59;100.00
11038;BME280;5572;49.540;11.932;2023-02-23T02:22:30;96062.56;;;4.61;100.00
11038;BME280;5572;49.540;11.932;2023-02-23T02:25:27;96082.88;;;4.57;100.00
11038;BME280;5572;49.540;11.932;2023-02-23T02:31:12;96069.28;;;4.68;100.00
11038;BME280;5572;49.540;11.932;2023-02-23T02:34:10;96087.78;;;4.85;100.00
11038;BME280;5572;49.540;11.932;2023-02-23T02:39:58;96101.47;;;4.88;100.00
11038;BME280;5572;49.540;11.932;2023-02-23T02:42:58;96113.75;;;4.89;100.00
11038;BME280;5572;49.540;11.932;2023-02-23T02:45:29;96113.72;;;4.79;100.00
11038;BME280;5572;49.540;11.932;2023-02-23T02:48:03;96116.41;;;4.79;100.00
11038;BME280;5572;49.540;11.932;2023-02-23T02:50:40;96117.97;;;4.70;100.00
11038;BME280;5572;49.540;11.932;2023-02-23T02:53:13;96130.53;;;4.60;100.00
11038;BME280;5572;49.540;11.932;2023-02-23T02:55:45;96133.78;;;4.62;100.00
11038;BME280;5572;49.540;11.932;2023-02-23T02:58:13;96137.00;;;4.64;100.00
11038;BME280;5572;49.540;11.932;2023-02-23T03:00:46;96140.69;;;4.58;100.00
11038;BME280;5572;49.540;11.932;2023-02-23T03:03:34;96147.94;;;4.57;100.00
11038;BME280;5572;49.540;11.932;2023-02-23T03:06:20;96153.59;;;4.71;100.00
11038;BME280;5572;49.540;11.932;2023-02-23T03:09:14;96152.78;;;4.65;100.00
11038;BME280;5572;49.540;11.932;2023-02-23T03:12:09;96168.59;;;4.77;100.00
11038;BME280;5572;49.540;11.932;2023-02-23T03:14:59;96174.22;;;4.80;100.00
11038;BME280;5572;49.540;11.932;2023-02-23T03:17:48;96174.25;;;4.85;100.00
11038;BME280;5572;49.540;11.932;2023-02-23T03:20:41;96175.09;;;4.91;100.00
11038;BME280;5572;49.540;11.932;2023-02-23T03:23:33;96167.59;;;4.98;100.00
11038;BME280;5572;49.540;11.932;2023-02-23T03:26:27;96185.00;;;4.95;100.00
11038;BME280;5572;49.540;11.932;2023-02-23T03:29:18;96189.00;;;4.88;100.00
11038;BME280;5572;49.540;11.932;2023-02-23T03:32:09;96198.94;;;4.97;100.00
11038;BME280;5572;49.540;11.932;2023-02-23T03:35:02;96190.09;;;4.97;100.00
11038;BME280;5572;49.540;11.932;2023-02-23T03:37:52;96201.06;;;5.00;100.00
11038;BME280;5572;49.540;11.932;2023-02-23T03:40:40;96197.03;;;4.83;100.00
11038;BME280;5572;49.540;11.932;2023-02-23T03:43:31;96201.81;;;4.86;100.00
11038;BME280;5572;49.540;11.932;2023-02-23T03:46:17;96212.53;;;4.86;100.00
11038;BME280;5572;49.540;11.932;2023-02-23T03:49:06;96212.53;;;4.86;100.00
11038;BME280;5572;49.540;11.932;2023-02-23T03:51:56;96220.06;;;4.84;100.00
11038;BME280;5572;49.540;11.932;2023-02-23T03:54:44;96224.91;;;4.92;100.00
11038;BME280;5572;49.540;11.932;2023-02-23T03:57:33;96227.78;;;4.80;100.00
11038;BME280;5572;49.540;11.932;2023-02-23T04:00:22;96231.00;;;4.82;100.00
11038;BME280;5572;49.540;11.932;2023-02-23T04:03:11;96231.56;;;4.84;100.00
11038;BME280;5572;49.540;11.932;2023-02-23T04:05:59;96243.09;;;4.95;100.00
11038;BME280;5572;49.540;11.932;2023-02-23T04:08:44;96236.91;;;4.89;100.00
11038;BME280;5572;49.540;11.932;2023-02-23T04:11:32;96251.13;;;4.95;100.00
11038;BME280;5572;49.540;11.932;2023-02-23T04:14:25;96236.41;;;4.87;100.00
11038;BME280;5572;49.540;11.932;2023-02-23T04:16:53;96241.19;;;4.85;100.00
11038;BME280;5572;49.540;11.932;2023-02-23T04:19:20;96252.69;;;4.86;100.00
11038;BME280;5572;49.540;11.932;2023-02-23T04:21:46;96251.03;;;4.70;100.00
11038;BME280;5572;49.540;11.932;2023-02-23T04:24:13;96256.38;;;4.75;100.00
11038;BME280;5572;49.540;11.932;2023-02-23T04:26:39;96275.44;;;4.83;100.00
11038;BME280;5572;49.540;11.932;2023-02-23T04:29:06;96275.13;;;4.75;100.00
11038;BME280;5572;49.540;11.932;2023-02-23T04:31:33;96265.19;;;4.70;100.00
11038;BME280;5572;49.540;11.932;2023-02-23T04:33:59;96267.63;;;4.72;100.00
11038;BME280;5572;49.540;11.932;2023-02-23T04:36:27;96276.50;;;4.77;100.00
11038;BME280;5572;49.540;11.932;2023-02-23T04:38:54;96270.59;;;4.75;100.00
11038;BME280;5572;49.540;11.932;2023-02-23T04:41:21;96281.81;;;4.72;100.00
11038;BME280;5572;49.540;11.932;2023-02-23T04:43:47;96276.69;;;4.66;100.00
11038;BME280;5572;49.540;11.932;2023-02-23T04:46:14;96286.94;;;4.74;100.00
11038;BME280;5572;49.540;11.932;2023-02-23T04:48:40;96284.81;;;4.86;100.00
11038;BME280;5572;49.540;11.932;2023-02-23T04:51:07;96279.63;;;4.64;100.00
11038;BME280;5572;49.540;11.932;2023-02-23T04:53:37;96296.13;;;4.51;100.00
11038;BME280;5572;49.540;11.932;2023-02-23T04:56:04;96298.88;;;4.61;100.00
11038;BME280;5572;49.540;11.932;2023-02-23T04:58:31;96304.56;;;4.70;100.00
11038;BME280;5572;49.540;11.932;2023-02-23T05:01:03;96311.47;;;4.66;100.00
11038;BME280;5572;49.540;11.932;2023-02-23T05:03:30;96307.78;;;4.72;100.00
11038;BME280;5572;49.540;11.932;2023-02-23T05:05:56;96309.66;;;4.71;100.00
11038;BME280;5572;49.540;11.932;2023-02-23T05:08:23;96306.41;;;4.64;100.00
11038;BME280;5572;49.540;11.932;2023-02-23T05:10:51;96308.00;;;4.65;100.00
11038;BME280;5572;49.540;11.932;2023-02-23T05:13:17;96305.56;;;4.59;100.00
11038;BME280;5572;49.540;11.932;2023-02-23T05:15:44;96318.16;;;4.63;100.00
11038;BME280;5572;49.540;11.932;2023-02-23T05:18:11;96329.22;;;4.72;100.00
11038;BME280;5572;49.540;11.932;2023-02-23T05:20:41;96324.69;;;4.77;100.00
11038;BME280;5572;49.540;11.932;2023-02-23T05:23:09;96331.13;;;4.81;100.00
11038;BME280;5572;49.540;11.932;2023-02-23T05:25:36;96327.09;;;4.79;100.00
11038;BME280;5572;49.540;11.932;2023-02-23T05:28:04;96324.78;;;4.51;100.00
11038;BME280;5572;49.540;11.932;2023-02-23T05:30:31;96330.72;;;4.58;100.00
11038;BME280;5572;49.540;11.932;2023-02-23T05:32:58;96341.97;;;4.60;100.00
11038;BME280;5572;49.540;11.932;2023-02-23T05:35:25;96343.28;;;4.57;100.00
11038;BME280;5572;49.540;11.932;2023-02-23T05:37:51;96344.50;;;4.45;100.00
11038;BME280;5572;49.540;11.932;2023-02-23T05:40:18;96340.19;;;4.39;100.00
11038;BME280;5572;49.540;11.932;2023-02-23T05:42:45;96344.72;;;4.33;100.00
11038;BME280;5572;49.540;11.932;2023-02-23T05:45:13;96357.41;;;4.48;100.00
11038;BME280;5572;49.540;11.932;2023-02-23T05:47:39;96354.06;;;4.31;100.00
11038;BME280;5572;49.540;11.932;2023-02-23T05:50:07;96347.59;;;4.27;100.00
11038;BME280;5572;49.540;11.932;2023-02-23T05:52:36;96351.94;;;4.33;100.00
11038;BME280;5572;49.540;11.932;2023-02-23T05:55:04;96354.63;;;4.38;100.00
11038;BME280;5572;49.540;11.932;2023-02-23T05:57:31;96379.91;;;4.52;100.00
11038;BME280;5572;49.540;11.932;2023-02-23T05:59:57;96365.13;;;4.44;100.00
11038;BME280;5572;49.540;11.932;2023-02-23T06:02:25;96363.25;;;4.45;100.00
11038;BME280;5572;49.540;11.932;2023-02-23T06:04:52;96358.34;;;4.32;100.00
11038;BME280;5572;49.540;11.932;2023-02-23T06:07:18;96371.19;;;4.35;100.00
11038;BME280;5572;49.540;11.932;2023-02-23T06:09:45;96378.28;;;4.51;100.00
11038;BME280;5572;49.540;11.932;2023-02-23T06:12:11;96378.28;;;4.51;100.00
11038;BME280;5572;49.540;11.932;2023-02-23T06:14:38;96371.84;;;4.47;100.00
11038;BME280;5572;49.540;11.932;2023-02-23T06:17:04;96390.13;;;4.60;100.00
11038;BME280;5572;49.540;11.932;2023-02-23T06:19:33;96393.94;;;4.69;100.00
11038;BME280;5572;49.540;11.932;2023-02-23T06:21:59;96387.28;;;4.71;100.00
11038;BME280;5572;49.540;11.932;2023-02-23T06:24:26;96396.91;;;4.72;100.00
11038;BME280;5572;49.540;11.932;2023-02-23T06:26:53;96406.06;;;4.76;100.00
11038;BME280;5572;49.540;11.932;2023-02-23T06:29:20;96410.09;;;4.79;100.00
11038;BME280;5572;49.540;11.932;2023-02-23T06:31:47;96408.91;;;4.65;100.00
11038;BME280;5572;49.540;11.932;2023-02-23T06:34:13;96413.97;;;4.61;100.00
11038;BME280;5572;49.540;11.932;2023-02-23T06:36:41;96427.59;;;4.60;100.00
11038;BME280;5572;49.540;11.932;2023-02-23T06:39:09;96431.16;;;4.70;100.00
11038;BME280;5572;49.540;11.932;2023-02-23T06:41:36;96439.75;;;4.72;100.00
11038;BME280;5572;49.540;11.932;2023-02-23T06:44:03;96443.25;;;4.73;100.00
11038;BME280;5572;49.540;11.932;2023-02-23T06:46:30;96441.88;;;4.70;100.00
11038;BME280;5572;49.540;11.932;2023-02-23T06:48:58;96441.38;;;4.73;100.00
11038;BME280;5572;49.540;11.932;2023-02-23T06:51:25;96456.75;;;4.88;100.00
11038;BME280;5572;49.540;11.932;2023-02-23T06:53:53;96457.84;;;4.92;100.00
11038;BME280;5572;49.540;11.932;2023-02-23T06:56:19;96470.28;;;5.07;100.00
11038;BME280;5572;49.540;11.932;2023-02-23T06:58:46;96461.53;;;5.17;100.00
11038;BME280;5572;49.540;11.932;2023-02-23T07:01:13;96465.84;;;5.23;100.00
11038;BME280;5572;49.540;11.932;2023-02-23T07:03:40;96467.75;;;5.27;100.00
11038;BME280;5572;49.540;11.932;2023-02-23T07:06:08;96478.28;;;5.39;100.00
11038;BME280;5572;49.540;11.932;2023-02-23T07:08:34;96452.34;;;5.08;100.00
11038;BME280;5572;49.540;11.932;2023-02-23T07:11:06;96471.25;;;5.28;100.00
11038;BME280;5572;49.540;11.932;2023-02-23T07:13:33;96484.50;;;5.49;100.00
11038;BME280;5572;49.540;11.932;2023-02-23T07:16:03;96475.13;;;5.52;100.00
11038;BME280;5572;49.540;11.932;2023-02-23T07:18:29;96474.88;;;5.53;100.00
11038;BME280;5572;49.540;11.932;2023-02-23T07:20:57;96491.88;;;5.74;100.00
11038;BME280;5572;49.540;11.932;2023-02-23T07:23:24;96488.44;;;5.78;100.00
11038;BME280;5572;49.540;11.932;2023-02-23T07:25:51;96488.16;;;5.80;100.00
11038;BME280;5572;49.540;11.932;2023-02-23T07:28:19;96497.97;;;6.05;100.00
11038;BME280;5572;49.540;11.932;2023-02-23T07:30:45;96497.72;;;6.12;100.00
11038;BME280;5572;49.540;11.932;2023-02-23T07:33:14;96491.31;;;6.28;100.00
11038;BME280;5572;49.540;11.932;2023-02-23T07:35:40;96494.31;;;6.36;100.00
11038;BME280;5572;49.540;11.932;2023-02-23T07:38:07;96479.06;;;6.52;100.00
11038;BME280;5572;49.540;11.932;2023-02-23T07:40:34;96445.19;;;6.36;100.00
11038;BME280;5572;49.540;11.932;2023-02-23T07:43:00;96436.91;;;6.47;100.00
11038;BME280;5572;49.540;11.932;2023-02-23T07:45:28;96446.84;;;6.62;100.00
11038;BME280;5572;49.540;11.932;2023-02-23T07:47:55;96431.50;;;6.32;100.00
11038;BME280;5572;49.540;11.932;2023-02-23T07:50:21;96424.28;;;6.53;100.00
11038;BME280;5572;49.540;11.932;2023-02-23T07:52:49;96418.63;;;6.69;100.00
11038;BME280;5572;49.540;11.932;2023-02-23T07:55:16;96440.91;;;7.04;100.00
11038;BME280;5572;49.540;11.932;2023-02-23T07:57:42;96424.28;;;7.07;100.00
11038;BME280;5572;49.540;11.932;2023-02-23T08:00:10;96411.66;;;7.08;100.00
11038;BME280;5572;49.540;11.932;2023-02-23T08:02:39;96396.31;;;7.23;100.00
11038;BME280;5572;49.540;11.932;2023-02-23T08:05:06;96403.53;;;7.38;100.00
11038;BME280;5572;49.540;11.932;2023-02-23T08:07:32;96386.00;;;7.45;100.00
11038;BME280;5572;49.540;11.932;2023-02-23T08:09:59;96381.38;;;7.66;100.00
11038;BME280;5572;49.540;11.932;2023-02-23T08:12:26;96365.78;;;7.68;100.00
11038;BME280;5572;49.540;11.932;2023-02-23T08:14:52;96357.19;;;7.66;100.00
11038;BME280;5572;49.540;11.932;2023-02-23T08:17:19;96348.56;;;7.64;100.00
11038;BME280;5572;49.540;11.932;2023-02-23T08:19:47;96349.75;;;7.96;100.00
11038;BME280;5572;49.540;11.932;2023-02-23T08:22:14;96342.75;;;7.95;100.00
11038;BME280;5572;49.540;11.932;2023-02-23T08:24:40;96351.59;;;8.05;100.00
11038;BME280;5572;49.540;11.932;2023-02-23T08:27:07;96337.25;;;8.20;100.00
11038;BME280;5572;49.540;11.932;2023-02-23T08:29:33;96345.19;;;8.40;100.00
11038;BME280;5572;49.540;11.932;2023-02-23T08:32:01;96329.66;;;8.27;100.00
11038;BME280;5572;49.540;11.932;2023-02-23T08:34:27;96324.19;;;8.37;100.00
11038;BME280;5572;49.540;11.932;2023-02-23T08:36:56;96309.94;;;8.36;100.00
11038;BME280;5572;49.540;11.932;2023-02-23T08:39:22;96299.34;;;8.16;100.00
11038;BME280;5572;49.540;11.932;2023-02-23T08:41:49;96304.41;;;8.51;100.00
11038;BME280;5572;49.540;11.932;2023-02-23T08:44:20;96316.31;;;9.07;100.00
11038;BME280;5572;49.540;11.932;2023-02-23T08:46:46;96324.00;;;9.18;100.00
11038;BME280;5572;49.540;11.932;2023-02-23T08:49:13;96303.34;;;8.80;100.00
11038;BME280;5572;49.540;11.932;2023-02-23T08:51:39;96297.66;;;9.10;100.00
11038;BME280;5572;49.540;11.932;2023-02-23T08:54:08;96280.97;;;9.08;100.00
11038;BME280;5572;49.540;11.932;2023-02-23T08:56:39;96255.19;;;9.21;100.00
11038;BME280;5572;49.540;11.932;2023-02-23T08:59:05;96246.50;;;9.47;100.00
11038;BME280;5572;49.540;11.932;2023-02-23T09:01:32;96234.44;;;9.63;100.00
11038;BME280;5572;49.540;11.932;2023-02-23T09:03:59;96220.63;;;9.46;100.00
11038;BME280;5572;49.540;11.932;2023-02-23T09:06:26;96209.34;;;9.81;100.00
11038;BME280;5572;49.540;11.932;2023-02-23T09:08:53;96185.09;;;9.76;100.00
11038;BME280;5572;49.540;11.932;2023-02-23T09:11:22;96162.00;;;9.51;100.00
11038;BME280;5572;49.540;11.932;2023-02-23T09:13:49;96146.31;;;9.72;100.00
11038;BME280;5572;49.540;11.932;2023-02-23T09:16:16;96134.47;;;9.86;100.00
11038;BME280;5572;49.540;11.932;2023-02-23T09:18:42;96119.16;;;10.14;100.00
11038;BME280;5572;49.540;11.932;2023-02-23T09:21:14;96109.03;;;10.37;100.00
11038;BME280;5572;49.540;11.932;2023-02-23T09:23:43;96107.63;;;10.80;100.00
11038;BME280;5572;49.540;11.932;2023-02-23T09:26:10;96076.72;;;10.59;100.00
11038;BME280;5572;49.540;11.932;2023-02-23T09:28:38;96069.00;;;11.15;100.00
11038;BME280;5572;49.540;11.932;2023-02-23T09:31:06;96050.41;;;10.38;100.00
11038;BME280;5572;49.540;11.932;2023-02-23T09:33:33;96021.16;;;10.67;100.00
11038;BME280;5572;49.540;11.932;2023-02-23T09:36:03;96005.69;;;10.81;100.00
11038;BME280;5572;49.540;11.932;2023-02-23T09:38:30;95976.75;;;10.32;100.00
11038;BME280;5572;49.540;11.932;2023-02-23T09:40:57;95959.13;;;10.48;100.00
11038;BME280;5572;49.540;11.932;2023-02-23T09:43:29;95922.25;;;11.31;100.00
11038;BME280;5572;49.540;11.932;2023-02-23T09:46:07;95915.53;;;11.73;100.00
11038;BME280;5572;49.540;11.932;2023-02-23T09:48:38;95898.53;;;11.81;100.00
11038;BME280;5572;49.540;11.932;2023-02-23T09:51:06;95843.47;;;11.55;100.00
11038;BME280;5572;49.540;11.932;2023-02-23T09:53:37;95817.94;;;11.86;100.00
11038;BME280;5572;49.540;11.932;2023-02-23T09:56:10;95794.44;;;11.65;100.00
11038;BME280;5572;49.540;11.932;2023-02-23T09:58:39;95768.81;;;11.62;100.00
11038;BME280;5572;49.540;11.932;2023-02-23T10:01:28;95743.88;;;11.99;100.00
11038;BME280;5572;49.540;11.932;2023-02-23T10:04:05;95684.63;;;12.06;100.00
11038;BME280;5572;49.540;11.932;2023-02-23T10:06:33;95660.41;;;12.09;100.00
11038;BME280;5572;49.540;11.932;2023-02-23T10:09:07;95596.78;;;12.15;100.00
11038;BME280;5572;49.540;11.932;2023-02-23T10:11:43;95204.72;;;12.24;100.00
11038;BME280;5572;49.540;11.932;2023-02-23T10:14:30;95160.06;;;12.30;100.00
11038;BME280;5572;49.540;11.932;2023-02-23T10:17:09;95138.28;;;12.95;100.00
11038;BME280;5572;49.540;11.932;2023-02-23T10:19:43;95179.22;;;12.25;100.00
11038;BME280;5572;49.540;11.932;2023-02-23T10:22:14;95181.22;;;12.49;100.00
11038;BME280;5572;49.540;11.932;2023-02-23T10:24:44;95186.16;;;12.14;100.00
11038;BME280;5572;49.540;11.932;2023-02-23T10:27:14;95183.09;;;12.36;100.00
11038;BME280;5572;49.540;11.932;2023-02-23T10:29:45;95209.53;;;12.19;100.00
11038;BME280;5572;49.540;11.932;2023-02-23T10:32:19;95231.41;;;12.34;100.00
11038;BME280;5572;49.540;11.932;2023-02-23T10:34:52;95249.84;;;12.41;100.00
11038;BME280;5572;49.540;11.932;2023-02-23T10:37:21;95282.94;;;12.67;100.00
11038;BME280;5572;49.540;11.932;2023-02-23T10:39:49;95300.53;;;12.61;100.00
11038;BME280;5572;49.540;11.932;2023-02-23T10:42:19;95311.91;;;12.75;100.00
11038;BME280;5572;49.540;11.932;2023-02-23T10:44:47;95347.53;;;12.65;100.00
11038;BME280;5572;49.540;11.932;2023-02-23T10:47:18;95358.59;;;12.80;100.00
11038;BME280;5572;49.540;11.932;2023-02-23T10:49:47;95392.78;;;12.52;100.00
11038;BME280;5572;49.540;11.932;2023-02-23T10:52:19;95415.88;;;12.29;100.00
11038;BME280;5572;49.540;11.932;2023-02-23T10:54:48;95449.16;;;12.30;100.00
11038;BME280;5572;49.540;11.932;2023-02-23T10:57:24;95455.03;;;12.40;100.00
11038;BME280;5572;49.540;11.932;2023-02-23T11:00:04;95481.06;;;12.24;100.00
11038;BME280;5572;49.540;11.932;2023-02-23T11:02:33;95507.19;;;12.29;100.00
11038;BME280;5572;49.540;11.932;2023-02-23T11:05:05;95515.50;;;12.24;100.00
11038;BME280;5572;49.540;11.932;2023-02-23T11:07:33;95517.34;;;12.40;100.00
11038;BME280;5572;49.540;11.932;2023-02-23T11:10:23;95552.09;;;12.38;100.00
11038;BME280;5572;49.540;11.932;2023-02-23T11:12:50;95563.03;;;12.13;100.00
11038;BME280;5572;49.540;11.932;2023-02-23T11:15:26;95570.88;;;11.98;100.00
11038;BME280;5572;49.540;11.932;2023-02-23T11:17:56;95575.44;;;12.14;100.00
11038;BME280;5572;49.540;11.932;2023-02-23T11:20:29;95577.38;;;12.59;100.00
11038;BME280;5572;49.540;11.932;2023-02-23T11:22:57;95608.72;;;12.23;100.00
11038;BME280;5572;49.540;11.932;2023-02-23T11:25:27;95601.31;;;12.86;100.00
11038;BME280;5572;49.540;11.932;2023-02-23T11:27:55;95623.59;;;12.71;100.00
11038;BME280;5572;49.540;11.932;2023-02-23T11:30:24;95652.19;;;12.52;100.00
11038;BME280;5572;49.540;11.932;2023-02-23T11:32:57;95646.94;;;13.30;100.00
11038;BME280;5572;49.540;11.932;2023-02-23T11:35:30;95673.50;;;13.16;100.00
11038;BME280;5572;49.540;11.932;2023-02-23T11:37:57;95690.84;;;13.32;100.00
11038;BME280;5572;49.540;11.932;2023-02-23T11:40:25;95715.31;;;13.52;100.00
11038;BME280;5572;49.540;11.932;2023-02-23T11:42:54;95745.28;;;13.27;100.00
11038;BME280;5572;49.540;11.932;2023-02-23T11:45:23;95760.34;;;13.16;100.00
11038;BME280;5572;49.540;11.932;2023-02-23T11:47:52;95802.22;;;12.73;100.00
11038;BME280;5572;49.540;11.932;2023-02-23T11:50:27;95842.91;;;13.06;100.00
11038;BME280;5572;49.540;11.932;2023-02-23T11:53:03;95885.81;;;12.62;100.00
11038;BME280;5572;49.540;11.932;2023-02-23T11:55:32;95902.09;;;12.88;100.00
11038;BME280;5572;49.540;11.932;2023-02-23T11:58:10;95919.28;;;12.83;100.00
11038;BME280;5572;49.540;11.932;2023-02-23T12:00:40;95929.34;;;12.74;100.00
11038;BME280;5572;49.540;11.932;2023-02-23T12:03:20;95951.00;;;12.57;100.00
11038;BME280;5572;49.540;11.932;2023-02-23T12:05:52;95948.00;;;12.67;100.00
11038;BME280;5572;49.540;11.932;2023-02-23T12:08:28;95966.34;;;12.79;100.00
11038;BME280;5572;49.540;11.932;2023-02-23T12:11:01;95971.97;;;12.82;100.00
11038;BME280;5572;49.540;11.932;2023-02-23T12:13:32;95987.66;;;12.46;100.00
11038;BME280;5572;49.540;11.932;2023-02-23T12:16:03;96014.94;;;12.41;100.00
11038;BME280;5572;49.540;11.932;2023-02-23T12:18:41;96023.22;;;12.53;100.00
11038;BME280;5572;49.540;11.932;2023-02-23T12:21:28;96040.59;;;12.44;100.00
11038;BME280;5572;49.540;11.932;2023-02-23T12:24:05;96056.59;;;12.23;100.00
11038;BME280;5572;49.540;11.932;2023-02-23T12:26:42;96071.63;;;12.29;100.00
11038;BME280;5572;49.540;11.932;2023-02-23T12:29:17;96069.34;;;12.23;100.00
11038;BME280;5572;49.540;11.932;2023-02-23T12:31:46;96082.81;;;12.36;100.00
11038;BME280;5572;49.540;11.932;2023-02-23T12:34:21;96071.75;;;12.24;100.00
11038;BME280;5572;49.540;11.932;2023-02-23T12:36:54;96090.88;;;11.98;100.00
11038;BME280;5572;49.540;11.932;2023-02-23T12:39:26;96104.84;;;11.91;100.00
11038;BME280;5572;49.540;11.932;2023-02-23T12:42:01;96101.97;;;11.88;100.00
11038;BME280;5572;49.540;11.932;2023-02-23T12:44:36;96104.81;;;11.83;100.00
11038;BME280;5572;49.540;11.932;2023-02-23T12:47:15;96106.88;;;11.86;100.00
11038;BME280;5572;49.540;11.932;2023-02-23T12:49:51;96108.38;;;11.92;100.00
11038;BME280;5572;49.540;11.932;2023-02-23T12:52:24;96105.16;;;11.90;100.00
11038;BME280;5572;49.540;11.932;2023-02-23T12:54:54;96103.81;;;12.01;100.00
11038;BME280;5572;49.540;11.932;2023-02-23T12:57:26;96097.09;;;11.98;100.00
11038;BME280;5572;49.540;11.932;2023-02-23T13:00:03;96093.91;;;11.96;100.00
11038;BME280;5572;49.540;11.932;2023-02-23T13:02:51;96087.84;;;11.99;100.00
11038;BME280;5572;49.540;11.932;2023-02-23T13:05:22;96085.28;;;11.94;100.00
11038;BME280;5572;49.540;11.932;2023-02-23T13:08:00;96071.69;;;11.86;100.00
11038;BME280;5572;49.540;11.932;2023-02-23T13:10:32;96076.38;;;11.72;100.00
11038;BME280;5572;49.540;11.932;2023-02-23T13:13:08;96050.84;;;11.64;100.00
11038;BME280;5572;49.540;11.932;2023-02-23T13:15:48;96042.56;;;11.47;100.00
11038;BME280;5572;49.540;11.932;2023-02-23T13:18:21;96026.50;;;11.51;100.00
11038;BME280;5572;49.540;11.932;2023-02-23T13:20:53;96020.09;;;11.47;100.00
11038;BME280;5572;49.540;11.932;2023-02-23T13:23:29;96019.28;;;11.60;100.00
11038;BME280;5572;49.540;11.932;2023-02-23T13:26:01;96001.13;;;11.60;100.00
11038;BME280;5572;49.540;11.932;2023-02-23T13:28:52;95980.00;;;11.71;100.00